Time;durP1;ratioP1;P1;durP2;ratioP2;P2;SDS_P1;SDS_P2;PMS_P1;PMS_P2;Temp;Humidity;BMP_temperature;BMP_pressure;BME280_temperature;BME280_humidity;BME280_pressure;Samples;Min_cycle;Max_cycle;Signal;HPM_P1;HPM_P2
2022/04/20 00:06:58;;;;;;;2.42;1.30;;;12.20;67.80;;;;;;6777978;87;20186;-79
2022/04/20 00:16:59;;;;;;;3.05;1.40;;;11.90;68.40;;;;;;6763674;87;20771;-79
2022/04/20 00:27:00;;;;;;;2.83;1.45;;;11.80;68.10;;;;;;6778156;87;20184;-79
2022/04/20 00:37:01;;;;;;;1.95;1.20;;;11.90;69.00;;;;;;6778399;87;20639;-79
2022/04/20 00:47:02;;;;;;;2.70;1.30;;;11.70;70.30;;;;;;6778336;87;20228;-79
2022/04/20 00:57:03;;;;;;;2.25;1.30;;;11.30;71.60;;;;;;6778889;87;20215;-79
2022/04/20 01:07:15;;;;;;;3.85;1.70;;;11.20;72.90;;;;;;6781307;87;20211;-79
2022/04/20 01:17:15;;;;;;;3.00;1.20;;;10.90;73.70;;;;;;6777946;87;20668;-79
2022/04/20 01:27:16;;;;;;;2.80;1.20;;;10.50;76.20;;;;;;6777030;87;20202;-79
2022/04/20 01:37:16;;;;;;;2.58;1.25;;;10.30;77.30;;;;;;6777006;87;20201;-79
2022/04/20 01:47:17;;;;;;;4.45;1.40;;;10.10;77.80;;;;;;6777350;87;20218;-79
2022/04/20 01:57:18;;;;;;;2.67;1.27;;;9.90;79.10;;;;;;6776016;87;20195;-79
2022/04/20 02:07:18;;;;;;;2.73;1.30;;;9.70;79.50;;;;;;6778318;87;20703;-79
2022/04/20 02:17:19;;;;;;;3.00;1.37;;;9.60;80.40;;;;;;6766214;87;20537;-80
2022/04/20 02:27:19;;;;;;;3.53;1.80;;;9.40;80.90;;;;;;6783634;87;20315;-80
2022/04/20 02:37:20;;;;;;;3.80;1.60;;;9.60;80.40;;;;;;6783803;87;20195;-79
2022/04/20 02:47:20;;;;;;;5.37;1.90;;;9.40;80.80;;;;;;6783053;87;20203;-79
2022/04/20 02:57:21;;;;;;;3.67;1.67;;;9.60;79.70;;;;;;6783346;87;20432;-79
2022/04/20 03:07:22;;;;;;;5.87;1.55;;;9.60;79.30;;;;;;6753921;88;20210;-79
2022/04/20 03:17:23;;;;;;;4.72;1.58;;;9.60;80.00;;;;;;6766459;88;20176;-79
2022/04/20 03:27:24;;;;;;;3.10;1.85;;;9.30;82.40;;;;;;6766000;88;20288;-79
2022/04/20 03:37:25;;;;;;;3.53;1.70;;;9.10;85.40;;;;;;6767198;88;20210;-79
2022/04/20 03:47:25;;;;;;;2.87;1.50;;;9.00;84.60;;;;;;6766536;88;20282;-80
2022/04/20 03:57:26;;;;;;;3.08;1.65;;;8.80;85.70;;;;;;6765466;88;20694;-80
2022/04/20 04:07:26;;;;;;;4.15;1.58;;;8.70;86.90;;;;;;6765493;88;20260;-79
2022/04/20 04:17:27;;;;;;;6.82;1.95;;;8.70;90.30;;;;;;6765597;88;20939;-79
2022/04/20 04:27:27;;;;;;;5.82;1.90;;;8.70;91.40;;;;;;6751383;88;20195;-79
2022/04/20 04:37:28;;;;;;;4.62;1.80;;;8.60;90.30;;;;;;6765186;88;20273;-80
2022/04/20 04:58:02;;;;;;;2.55;1.73;;;8.90;87.30;;;;;;6762302;87;20148;-77
2022/04/20 05:08:02;;;;;;;6.47;2.00;;;8.50;91.00;;;;;;6775209;87;20657;-79
2022/04/20 05:18:03;;;;;;;5.05;1.90;;;8.50;91.50;;;;;;6766232;88;20196;-79
2022/04/20 05:28:04;;;;;;;5.43;2.20;;;8.80;90.80;;;;;;6765754;88;20213;-79
2022/04/20 05:48:24;;;;;;;5.18;2.08;;;8.90;92.50;;;;;;6762019;88;20176;-79
2022/04/20 05:58:25;;;;;;;3.97;1.60;;;9.40;89.10;;;;;;6763784;88;20261;-79
2022/04/20 06:08:25;;;;;;;2.72;1.40;;;9.60;88.50;;;;;;6750148;88;20208;-79
2022/04/20 06:18:26;;;;;;;4.68;1.83;;;10.00;83.50;;;;;;6751834;88;20212;-79
2022/04/20 06:28:27;;;;;;;6.10;1.52;;;10.10;81.80;;;;;;6763817;88;20325;-80
2022/04/20 06:38:28;;;;;;;8.25;1.92;;;10.70;81.40;;;;;;6763370;88;20213;-80
2022/04/20 06:48:28;;;;;;;3.62;1.80;;;11.10;79.60;;;;;;6763747;88;20353;-79
2022/04/20 06:58:32;;;;;;;5.87;1.65;;;11.40;78.00;;;;;;6763991;88;20217;-80
2022/04/20 07:08:33;;;;;;;4.32;1.60;;;11.80;78.20;;;;;;6758892;87;20205;-80
2022/04/20 07:18:34;;;;;;;5.95;1.58;;;12.30;76.90;;;;;;6783772;87;20216;-79
2022/04/20 07:28:34;;;;;;;3.00;1.50;;;12.60;73.40;;;;;;6782992;87;20210;-79
2022/04/20 07:38:35;;;;;;;4.90;1.52;;;13.00;71.10;;;;;;6783277;87;20458;-79
2022/04/20 07:48:35;;;;;;;6.87;1.75;;;13.30;68.30;;;;;;6784693;87;20259;-79
2022/04/20 07:58:36;;;;;;;5.00;1.30;;;13.50;67.40;;;;;;6782278;87;20238;-81
2022/04/20 08:19:38;;;;;;;4.53;1.52;;;14.20;64.10;;;;;;6734932;88;20608;-80
2022/04/20 08:29:39;;;;;;;3.80;1.20;;;14.20;63.90;;;;;;6729851;88;20196;-80
2022/04/20 08:39:39;;;;;;;3.97;1.47;;;14.90;63.80;;;;;;6730257;88;20209;-79
2022/04/20 08:49:45;;;;;;;4.10;1.50;;;15.40;61.90;;;;;;6729001;88;20523;-80
2022/04/20 08:59:49;;;;;;;4.20;1.30;;;15.00;61.20;;;;;;6732311;88;20216;-80
2022/04/20 09:09:50;;;;;;;5.67;1.60;;;15.20;62.80;;;;;;6723054;88;20201;-80
2022/04/20 09:19:53;;;;;;;2.05;1.17;;;16.50;59.30;;;;;;6728096;88;20193;-80
2022/04/20 09:29:57;;;;;;;3.87;1.55;;;16.30;60.50;;;;;;6734577;88;20262;-80
2022/04/20 09:39:58;;;;;;;5.60;1.50;;;17.50;60.80;;;;;;6733883;88;20204;-80
2022/04/20 09:50:01;;;;;;;3.55;1.62;;;18.20;61.20;;;;;;6727500;88;20265;-81
2022/04/20 10:00:15;;;;;;;2.83;1.48;;;19.20;59.40;;;;;;6725859;88;20627;-81
2022/04/20 10:10:15;;;;;;;2.28;1.30;;;19.90;57.90;;;;;;6730784;88;20223;-81
2022/04/20 10:20:16;;;;;;;3.33;1.48;;;20.20;56.40;;;;;;6730754;88;20730;-80
2022/04/20 10:30:25;;;;;;;4.62;1.50;;;20.30;56.50;;;;;;6731886;88;20197;-82
2022/04/20 10:40:25;;;;;;;3.55;1.40;;;20.60;57.00;;;;;;6732579;88;20196;-81
2022/04/20 10:50:26;;;;;;;3.22;1.30;;;21.50;55.00;;;;;;6734684;88;20260;-81
2022/04/20 11:00:32;;;;;;;3.23;1.40;;;21.50;53.90;;;;;;6733849;88;20204;-80
2022/04/20 11:10:41;;;;;;;2.67;1.20;;;19.90;54.30;;;;;;6715876;88;20484;-80
2022/04/20 11:21:03;;;;;;;2.90;1.50;;;19.30;55.40;;;;;;6716477;88;20632;-81
2022/04/20 11:31:04;;;;;;;4.60;1.33;;;20.90;54.60;;;;;;6716267;88;20193;-81
2022/04/20 11:41:05;;;;;;;6.03;1.50;;;22.10;52.80;;;;;;6712655;88;20197;-82
2022/04/20 11:51:09;;;;;;;4.35;1.30;;;20.90;52.40;;;;;;6716953;88;20603;-82
2022/04/20 12:01:11;;;;;;;2.55;1.08;;;21.00;53.50;;;;;;6715727;88;20655;-81
2022/04/20 12:11:11;;;;;;;2.22;1.15;;;21.50;54.00;;;;;;6716229;88;20254;-81
2022/04/20 12:21:42;;;;;;;5.22;1.20;;;22.10;50.80;;;;;;6713369;88;20770;-85
2022/04/20 12:31:43;;;;;;;3.90;1.05;;;21.70;51.60;;;;;;6719349;88;20182;-81
2022/04/20 12:41:47;;;;;;;3.90;1.17;;;21.40;50.70;;;;;;6712823;88;20652;-81
2022/04/20 12:51:48;;;;;;;2.47;1.10;;;23.00;50.50;;;;;;6715734;88;20715;-81
2022/04/20 13:02:03;;;;;;;6.65;1.30;;;22.60;49.40;;;;;;6717576;88;20305;-81
2022/04/20 13:12:04;;;;;;;2.20;1.08;;;22.10;50.60;;;;;;6718559;88;20246;-81
2022/04/20 13:22:05;;;;;;;2.42;1.30;;;21.50;51.80;;;;;;6717446;88;20327;-81
2022/04/20 13:32:06;;;;;;;4.22;1.08;;;23.50;49.10;;;;;;6728653;88;20509;-81
2022/04/20 13:42:07;;;;;;;4.00;1.20;;;22.60;49.30;;;;;;6732006;88;20192;-81
2022/04/20 13:52:07;;;;;;;2.35;1.20;;;23.60;50.70;;;;;;6728284;88;20181;-81
2022/04/20 14:02:08;;;;;;;2.83;1.20;;;24.90;50.20;;;;;;6729191;88;20223;-81
2022/04/20 14:12:09;;;;;;;2.97;1.20;;;25.20;49.30;;;;;;6731194;88;20592;-81
2022/04/20 14:22:14;;;;;;;5.82;1.08;;;24.80;48.70;;;;;;6735243;88;20192;-81
2022/04/20 14:32:15;;;;;;;2.15;1.20;;;23.50;50.10;;;;;;6730653;88;20219;-82
2022/04/20 14:42:15;;;;;;;2.03;1.15;;;23.20;49.70;;;;;;6728456;88;20284;-81
2022/04/20 14:52:16;;;;;;;2.45;0.85;;;22.20;51.20;;;;;;6737341;88;20676;-80
2022/04/20 15:02:18;;;;;;;2.42;1.08;;;22.60;50.50;;;;;;6737541;88;20640;-81
2022/04/20 15:12:19;;;;;;;3.28;1.20;;;22.60;51.10;;;;;;6739960;88;20201;-81
2022/04/20 15:22:20;;;;;;;3.92;1.05;;;22.10;51.90;;;;;;6738496;88;20371;-80
2022/04/20 15:32:22;;;;;;;3.25;1.00;;;22.80;51.70;;;;;;6734179;88;20211;-81
2022/04/20 15:42:24;;;;;;;3.20;1.17;;;22.10;53.10;;;;;;6735802;88;20211;-81
2022/04/20 15:52:26;;;;;;;3.00;1.12;;;21.80;52.70;;;;;;6741569;88;20197;-82
2022/04/20 16:02:27;;;;;;;1.55;0.77;;;21.90;53.70;;;;;;6735286;88;20191;-81
2022/04/20 16:12:28;;;;;;;1.57;0.80;;;21.30;53.30;;;;;;6739115;88;20795;-81
2022/04/20 16:22:29;;;;;;;2.33;0.80;;;21.40;53.30;;;;;;6740603;88;20324;-80
2022/04/20 16:32:30;;;;;;;2.70;1.00;;;21.10;54.60;;;;;;6740897;88;20494;-80
2022/04/20 16:42:33;;;;;;;3.95;0.85;;;20.80;53.40;;;;;;6741930;88;20206;-80
2022/04/20 16:52:36;;;;;;;2.00;0.70;;;20.60;54.70;;;;;;6740617;88;20287;-80
2022/04/20 17:02:41;;;;;;;2.42;0.88;;;20.40;55.60;;;;;;6738406;88;20211;-80
2022/04/20 17:12:42;;;;;;;;;;;20.00;55.80;;;;;;6737220;88;20202;-80
2022/04/20 17:33:02;;;;;;;3.58;1.05;;;20.20;56.00;;;;;;6737035;88;20521;-80
2022/04/20 17:43:02;;;;;;;1.83;0.93;;;20.00;56.00;;;;;;6700634;88;20334;-82
2022/04/20 17:53:03;;;;;;;2.65;1.20;;;19.20;57.70;;;;;;6723416;88;20519;-80
2022/04/20 18:03:03;;;;;;;3.80;1.10;;;19.00;57.70;;;;;;6736673;88;21071;-80
2022/04/20 18:13:04;;;;;;;1.60;0.88;;;18.60;58.70;;;;;;6734139;88;20186;-80
2022/04/20 18:23:04;;;;;;;3.22;1.12;;;18.30;59.20;;;;;;6735223;88;20238;-81
2022/04/20 18:33:07;;;;;;;1.87;1.00;;;17.90;60.60;;;;;;6730482;88;20855;-81
2022/04/20 18:43:08;;;;;;;2.45;1.10;;;17.80;61.10;;;;;;6732243;88;20637;-80
2022/04/20 19:03:27;;;;;;;2.33;1.05;;;17.20;62.80;;;;;;6742604;88;20165;-81
2022/04/20 19:13:28;;;;;;;3.35;1.90;;;17.10;63.60;;;;;;6717214;88;20231;-81
2022/04/20 19:23:28;;;;;;;2.30;1.20;;;16.80;63.90;;;;;;6752205;88;20232;-81
2022/04/20 19:33:29;;;;;;;2.58;1.40;;;16.50;65.80;;;;;;6754514;88;20713;-80
2022/04/20 19:43:30;;;;;;;4.18;1.20;;;16.50;66.10;;;;;;6752745;88;20205;-80
2022/04/20 19:53:30;;;;;;;3.08;1.05;;;16.20;67.40;;;;;;6755291;88;20237;-80
2022/04/20 20:13:35;;;;;;;3.58;1.20;;;15.80;68.50;;;;;;6728589;88;20358;-78
2022/04/20 20:33:56;;;;;;;2.53;1.20;;;15.40;70.90;;;;;;6729962;88;20181;-77
2022/04/20 20:43:58;;;;;;;3.30;1.40;;;15.20;72.00;;;;;;6728402;88;20193;-79
2022/04/20 20:53:58;;;;;;;3.50;1.60;;;14.70;73.10;;;;;;6728879;88;20208;-80
2022/04/20 21:03:59;;;;;;;2.00;1.30;;;14.40;74.50;;;;;;6728975;88;20393;-79
2022/04/20 21:14:00;;;;;;;4.75;1.75;;;14.10;75.80;;;;;;6728782;88;20173;-78
2022/04/20 21:24:05;;;;;;;2.90;1.73;;;13.90;77.20;;;;;;6721649;88;20657;-78
2022/04/20 21:34:07;;;;;;;4.53;1.70;;;13.80;77.90;;;;;;6723146;88;20201;-79
2022/04/20 21:44:08;;;;;;;3.20;1.60;;;13.50;78.70;;;;;;6728993;88;20206;-79
2022/04/20 21:54:08;;;;;;;5.70;1.70;;;13.20;79.50;;;;;;6728932;88;20609;-78
2022/04/20 22:14:39;;;;;;;3.97;1.40;;;13.30;80.00;;;;;;6726541;88;20308;-78
2022/04/20 22:24:40;;;;;;;5.18;1.80;;;13.30;81.00;;;;;;6726377;88;20211;-78
2022/04/20 22:34:40;;;;;;;3.60;1.35;;;13.20;81.70;;;;;;6727258;88;20715;-79
2022/04/20 22:44:41;;;;;;;3.10;1.55;;;12.90;83.40;;;;;;6726476;88;20292;-78
2022/04/20 22:54:42;;;;;;;4.30;1.53;;;12.70;84.70;;;;;;6729120;88;20725;-78
2022/04/20 23:04:42;;;;;;;4.27;1.80;;;12.80;85.10;;;;;;6725647;88;20532;-79
2022/04/20 23:14:43;;;;;;;2.85;1.30;;;12.70;86.50;;;;;;6731065;88;20547;-79
2022/04/20 23:35:02;;;;;;;5.28;1.40;;;12.30;90.30;;;;;;6728865;88;20737;-77
2022/04/20 23:45:03;;;;;;;3.90;1.60;;;12.40;90.20;;;;;;6728293;88;20328;-78
2022/04/20 23:55:04;;;;;;;3.70;1.80;;;12.40;90.40;;;;;;6727183;88;20319;-78
